• Join FlightAware (Why Join?)
  • Login
  • US Flag 
01:31PM EDT


 

Airport Tracker/Info


-or-


 

Live Flight TrackerFlight Track Log ✈ ZK-NGD ✈ 05-May-2012 ✈ NZAA / AKL - NZDN / DUD

Flight Track Log - Related Links

Times and Time Zones

All times are in EDT time to prevent confusion due to time zone crossing. See the ZK-NGD flight status page for this flight to view local times or setup timezone preferences in your user account.

Time Position Orientation Groundspeed Altitude Reporting Facility
EDT Latitude Longitude Course Direction KTS MPH feet Rate Location/Type
03:31PM -37.0355 174.7794 200° South  Level Estimated
03:32PM -37.1453 174.7304 200° South  Level Estimated
03:33PM -37.2550 174.6812 200° South  Level Estimated
03:34PM -37.3647 174.6318 200° South  Level Estimated
03:35PM -37.4745 174.5823 200° South  Level Estimated
03:36PM -37.5841 174.5326 200° South  Level Estimated
03:37PM -37.6938 174.4828 200° South  Level Estimated
03:38PM -37.8035 174.4329 200° South  Level Estimated
03:39PM -37.9131 174.3828 200° South  Level Estimated
03:40PM -38.0227 174.3326 200° South  Level Estimated
03:41PM -38.1323 174.2822 200° South  Level Estimated
03:42PM -38.2419 174.2316 200° South  Level Estimated
03:43PM -38.3514 174.1809 200° South  Level Estimated
03:44PM -38.4609 174.1301 200° South  Level Estimated
03:45PM -38.5704 174.0791 200° South  Level Estimated
03:46PM -38.6799 174.0279 200° South  Level Estimated
03:47PM -38.7893 173.9766 200° South  Level Estimated
03:48PM -38.8988 173.9251 200° South  Level Estimated
03:49PM -39.0082 173.8735 200° South  Level Estimated
03:50PM -39.1176 173.8217 200° South  Level Estimated
03:51PM -39.2269 173.7698 200° South  Level Estimated
03:52PM -39.3363 173.7176 200° South  Level Estimated
03:53PM -39.4456 173.6654 200° South  Level Estimated
03:54PM -39.5549 173.6129 200° South  Level Estimated
03:55PM -39.6641 173.5603 200° South  Level Estimated
03:56PM -39.7734 173.5075 200° South  Level Estimated
03:57PM -39.8826 173.4546 200° South  Level Estimated
03:58PM -39.9918 173.4015 200° South  Level Estimated
03:59PM -40.1010 173.3482 201° Southwest  Level Estimated
04:00PM -40.2101 173.2947 201° Southwest  Level Estimated
04:01PM -40.3192 173.2411 201° Southwest  Level Estimated
04:02PM -40.4283 173.1873 201° Southwest  Level Estimated
04:03PM -40.5374 173.1333 201° Southwest  Level Estimated
04:04PM -40.6465 173.0792 201° Southwest  Level Estimated
04:05PM -40.7555 173.0249 201° Southwest  Level Estimated
04:06PM -40.8645 172.9704 201° Southwest  Level Estimated
04:07PM -40.9734 172.9157 201° Southwest  Level Estimated
04:08PM -41.0824 172.8608 201° Southwest  Level Estimated
04:09PM -41.1913 172.8058 201° Southwest  Level Estimated
04:10PM -41.3002 172.7505 201° Southwest  Level Estimated
04:11PM -41.4091 172.6951 201° Southwest  Level Estimated
04:12PM -41.5179 172.6395 201° Southwest  Level Estimated
04:13PM -41.6267 172.5837 201° Southwest  Level Estimated
04:14PM -41.7355 172.5277 201° Southwest  Level Estimated
04:15PM -41.8443 172.4716 201° Southwest  Level Estimated
04:16PM -41.9530 172.4152 201° Southwest  Level Estimated
04:17PM -42.0617 172.3587 201° Southwest  Level Estimated
04:18PM -42.1704 172.3019 201° Southwest  Level Estimated
04:19PM -42.2790 172.2450 201° Southwest  Level Estimated
04:20PM -42.3877 172.1878 201° Southwest  Level Estimated
04:21PM -42.4963 172.1305 201° Southwest  Level Estimated
04:22PM -42.6048 172.0730 201° Southwest  Level Estimated
04:23PM -42.7133 172.0152 201° Southwest  Level Estimated
04:24PM -42.8218 171.9573 201° Southwest  Level Estimated
04:25PM -42.9303 171.8992 201° Southwest  Level Estimated
04:26PM -43.0388 171.8408 202° Southwest  Level Estimated
04:27PM -43.1472 171.7823 202° Southwest  Level Estimated
04:28PM -43.2556 171.7235 202° Southwest  Level Estimated
04:29PM -43.3639 171.6645 202° Southwest  Level Estimated
04:30PM -43.4722 171.6053 202° Southwest  Level Estimated
04:31PM -43.5805 171.5459 202° Southwest  Level Estimated
04:32PM -43.6888 171.4863 202° Southwest  Level Estimated
04:33PM -43.7970 171.4265 202° Southwest  Level Estimated
04:34PM -43.9052 171.3665 202° Southwest  Level Estimated
04:35PM -44.0134 171.3062 202° Southwest  Level Estimated
04:36PM -44.1215 171.2457 202° Southwest  Level Estimated
04:37PM -44.2296 171.1850 202° Southwest  Level Estimated
04:38PM -44.3377 171.1241 202° Southwest  Level Estimated
04:39PM -44.4457 171.0629 202° Southwest  Level Estimated
04:40PM -44.5537 171.0016 202° Southwest  Level Estimated
04:41PM -44.6617 170.9400 202° Southwest  Level Estimated
04:42PM -44.7697 170.8781 202° Southwest  Level Estimated
04:43PM -44.8776 170.8161 202° Southwest  Level Estimated
04:44PM -44.9855 170.7538 202° Southwest  Level Estimated
04:45PM -45.0933 170.6913 202° Southwest  Level Estimated
04:46PM -45.2011 170.6285 202° Southwest  Level Estimated
04:47PM -45.3089 170.5655 202° Southwest  Level Estimated
04:48PM -45.4166 170.5022 202° Southwest  Level Estimated
04:49PM -45.5243 170.4387 202° Southwest  Level Estimated
04:50PM -45.6320 170.3750 203° Southwest  Level Estimated
04:51PM -45.7396 170.3110 203° Southwest  Level Estimated
04:52PM -45.8472 170.2468 203° Southwest  Level Estimated
04:53PM -45.9548 170.1823 23° Northeast  Level Estimated
04:54PM -45.8472 170.2468 203° Southwest  Level Estimated
04:55PM -45.9548 170.1823 23° Northeast  Level Estimated
04:56PM -45.8472 170.2468 203° Southwest  Level Estimated
04:57PM -45.9548 170.1823 23° Northeast  Level Estimated
04:58PM -45.8472 170.2468 23° Northeast  Level Estimated